Terminal Aerodrome Forecast
Issued by NWS Cleveland, OH

Home | Current Version | Previous Version | Graphics & Text | Print | Product List | Glossary On
Versions: 1 2 3 4 5 6 7 8 9 10 11 12 13 14 15 16 17 18 19 20 21 22 23 24
000
FTUS41 KCLE 231700
TAFTOL
TAF
KTOL 231730Z 2318/2418 26005KT P6SM SCT025
      TEMPO 2318/2320 BKN025
     FM232000 26006KT P6SM SCT250
     FM232300 22003KT P6SM BKN250
     FM240600 VRB03KT P6SM BKN100
     FM241400 25004KT P6SM SCT045 BKN100=

USA.gov is the U.S. government's official web portal to all federal, state and local government web resources and services.